createdAt,value
2019-03-31T00:01:28.998Z,82.03
2019-03-31T00:03:59.195Z,84.93
2019-03-31T00:06:29.264Z,85.97
2019-03-31T00:08:59.064Z,95.77
2019-03-31T00:11:28.776Z,88.53
2019-03-31T00:13:58.586Z,78.73
2019-03-31T00:16:28.700Z,85.93
2019-03-31T00:18:58.432Z,87.80
2019-03-31T00:21:28.502Z,86.53
2019-03-31T00:23:58.638Z,79.47
2019-03-31T00:26:28.516Z,82.97
2019-03-31T00:28:59.390Z,86.47
2019-03-31T00:31:29.196Z,90.23
2019-03-31T00:33:58.984Z,95.90
2019-03-31T00:36:28.691Z,94.13
2019-03-31T00:38:58.410Z,95.13
2019-03-31T00:41:28.884Z,93.03
2019-03-31T00:43:59.014Z,92.00
2019-03-31T00:46:29.197Z,92.63
2019-03-31T00:48:58.935Z,94.83
2019-03-31T00:51:28.787Z,104.73
2019-03-31T00:53:58.508Z,98.03
2019-03-31T00:56:28.259Z,103.97
2019-03-31T00:58:58.464Z,98.23
2019-03-31T01:01:36.904Z,103.67
2019-03-31T01:04:06.388Z,106.70
2019-03-31T01:06:37.556Z,109.33
2019-03-31T01:09:25.403Z,109.93
2019-03-31T01:11:56.111Z,110.93
2019-03-31T01:14:26.312Z,109.17
2019-03-31T01:16:57.414Z,112.83
2019-03-31T01:19:28.875Z,122.43
2019-03-31T01:21:58.693Z,131.57
2019-03-31T01:24:28.742Z,129.00
2019-03-31T01:26:58.845Z,129.60
2019-03-31T01:29:28.546Z,129.60
2019-03-31T01:31:58.879Z,128.33
2019-03-31T01:34:28.749Z,128.30
2019-03-31T01:36:59.041Z,137.40
2019-03-31T01:39:29.741Z,135.60
2019-03-31T01:41:59.992Z,129.67
2019-03-31T01:44:30.760Z,144.53
2019-03-31T01:47:00.614Z,135.73
2019-03-31T01:49:30.502Z,140.87
2019-03-31T01:52:00.725Z,135.70
2019-03-31T01:54:30.911Z,139.03
2019-03-31T01:57:01.045Z,130.97
2019-03-31T01:59:30.848Z,142.47
2019-03-31T02:02:04.373Z,141.37
2019-03-31T02:04:32.157Z,140.13
2019-03-31T02:07:02.046Z,131.47
2019-03-31T02:09:31.907Z,129.97
2019-03-31T02:12:02.046Z,132.03
2019-03-31T02:14:32.083Z,123.03
2019-03-31T02:17:01.974Z,125.87
2019-03-31T02:19:31.794Z,131.93
2019-03-31T02:22:02.412Z,122.60
2019-03-31T02:24:32.986Z,127.97
2019-03-31T02:27:03.462Z,135.40
2019-03-31T02:29:33.161Z,130.53
2019-03-31T02:32:03.098Z,134.87
2019-03-31T02:34:32.826Z,126.80
2019-03-31T02:37:02.608Z,137.97
2019-03-31T02:39:32.401Z,133.10
2019-03-31T02:42:02.233Z,129.40
2019-03-31T02:44:32.027Z,133.87
2019-03-31T02:47:01.979Z,140.97
2019-03-31T02:49:31.883Z,135.53
2019-03-31T02:52:01.620Z,138.80
2019-03-31T02:54:31.631Z,136.30
2019-03-31T02:57:01.904Z,130.40
2019-03-31T02:59:34.133Z,132.67
2019-03-31T03:02:03.878Z,135.30
2019-03-31T03:04:35.635Z,134.97
2019-03-31T03:07:05.971Z,136.70
2019-03-31T03:09:37.317Z,129.97
2019-03-31T03:12:09.843Z,136.13
2019-03-31T03:14:39.695Z,136.60
2019-03-31T03:17:09.831Z,133.27
2019-03-31T03:19:39.979Z,129.97
2019-03-31T03:22:10.494Z,125.33
2019-03-31T03:24:40.716Z,133.80
2019-03-31T03:27:10.529Z,133.90
2019-03-31T03:29:40.319Z,121.90
2019-03-31T03:32:10.531Z,130.43
2019-03-31T03:34:41.458Z,130.13
2019-03-31T03:37:11.538Z,124.90
2019-03-31T03:39:41.395Z,128.33
2019-03-31T03:42:11.103Z,118.63
2019-03-31T03:44:41.339Z,125.13
2019-03-31T03:47:11.609Z,126.43
2019-03-31T03:49:41.750Z,130.80
2019-03-31T03:52:12.322Z,124.13
2019-03-31T03:54:42.347Z,122.13
2019-03-31T03:57:12.068Z,127.40
2019-03-31T03:59:41.854Z,123.70
2019-03-31T04:02:15.634Z,116.33
2019-03-31T04:04:45.857Z,121.33
2019-03-31T04:07:16.086Z,119.13
2019-03-31T04:09:45.861Z,118.30
2019-03-31T04:12:15.769Z,121.27
2019-03-31T04:14:45.950Z,114.40
2019-03-31T04:17:15.737Z,116.67
2019-03-31T04:19:45.625Z,115.17
2019-03-31T04:22:15.336Z,128.73
2019-03-31T04:24:45.135Z,119.70
2019-03-31T04:27:18.921Z,129.50
2019-03-31T04:29:46.968Z,129.97
2019-03-31T04:32:16.768Z,129.27
2019-03-31T04:34:47.319Z,133.57
2019-03-31T04:37:17.426Z,133.60
2019-03-31T04:39:49.187Z,140.90
2019-03-31T04:42:18.928Z,139.77
2019-03-31T04:44:49.128Z,141.20
2019-03-31T04:47:19.824Z,139.23
2019-03-31T04:49:49.614Z,142.63
2019-03-31T04:52:19.331Z,146.70
2019-03-31T04:54:49.488Z,139.17
2019-03-31T04:57:19.640Z,144.40
2019-03-31T04:59:49.375Z,139.20
2019-03-31T05:02:19.224Z,138.53
2019-03-31T05:04:48.964Z,142.77
2019-03-31T05:07:18.682Z,145.23
2019-03-31T05:09:49.278Z,138.37
2019-03-31T05:12:19.032Z,138.83
2019-03-31T05:14:49.194Z,147.40
2019-03-31T05:17:19.610Z,144.23
2019-03-31T05:19:49.332Z,139.73
2019-03-31T05:22:21.182Z,136.40
2019-03-31T05:24:51.410Z,140.93
2019-03-31T05:27:21.194Z,135.77
2019-03-31T05:29:51.840Z,144.17
2019-03-31T05:32:22.305Z,142.67
2019-03-31T05:34:53.269Z,144.27
2019-03-31T05:37:23.646Z,152.27
2019-03-31T05:39:53.360Z,154.33
2019-03-31T05:42:23.423Z,163.17
2019-03-31T05:44:53.588Z,172.60
2019-03-31T05:47:23.372Z,172.30
2019-03-31T05:49:53.792Z,173.03
2019-03-31T05:52:24.427Z,172.20
2019-03-31T05:54:54.513Z,175.83
2019-03-31T05:57:25.869Z,188.80
2019-03-31T05:59:56.250Z,194.37
2019-03-31T06:02:26.461Z,195.33
2019-03-31T06:04:56.618Z,192.97
2019-03-31T06:07:27.299Z,193.93
2019-03-31T06:09:59.467Z,200.30
2019-03-31T06:12:29.804Z,201.60
2019-03-31T06:14:59.584Z,188.60
2019-03-31T06:17:30.864Z,192.53
2019-03-31T06:20:00.666Z,199.77
2019-03-31T06:22:30.484Z,199.97
2019-03-31T06:25:00.693Z,197.17
2019-03-31T06:27:31.158Z,197.70
2019-03-31T06:30:01.459Z,183.43
2019-03-31T06:32:33.940Z,204.43
2019-03-31T06:35:04.142Z,197.90
2019-03-31T06:37:36.262Z,202.47
2019-03-31T06:40:07.134Z,202.67
2019-03-31T06:42:37.414Z,193.00
2019-03-31T06:45:08.186Z,190.97
2019-03-31T06:47:38.005Z,187.20
2019-03-31T06:50:09.668Z,176.63
2019-03-31T06:52:41.282Z,189.73
2019-03-31T06:55:11.088Z,180.33
2019-03-31T06:57:40.867Z,171.27
2019-03-31T07:00:12.174Z,175.40
2019-03-31T07:02:42.276Z,168.83
2019-03-31T07:05:12.406Z,164.13
2019-03-31T07:07:42.318Z,166.93
2019-03-31T07:10:12.170Z,148.43
2019-03-31T07:12:42.404Z,144.13
2019-03-31T07:15:12.874Z,135.27
2019-03-31T07:17:42.772Z,118.93
2019-03-31T07:20:13.127Z,113.20
2019-03-31T07:22:43.028Z,109.97
2019-03-31T07:25:13.230Z,97.57
2019-03-31T07:27:43.290Z,95.17
2019-03-31T07:30:13.593Z,98.90
2019-03-31T07:32:43.361Z,97.57
2019-03-31T07:35:18.736Z,96.57
2019-03-31T07:37:47.469Z,88.67
2019-03-31T07:40:17.912Z,84.77
2019-03-31T07:42:50.847Z,78.17
2019-03-31T07:45:20.770Z,77.10
2019-03-31T07:47:50.489Z,69.47
2019-03-31T07:50:22.424Z,73.07
2019-03-31T07:52:52.144Z,64.90
2019-03-31T07:55:22.328Z,64.30
2019-03-31T07:57:54.569Z,60.63
2019-03-31T08:00:26.158Z,61.07
2019-03-31T08:03:00.035Z,60.30
2019-03-31T08:05:33.275Z,55.00
2019-03-31T08:08:00.046Z,61.17
2019-03-31T08:10:29.965Z,53.83
2019-03-31T08:13:00.118Z,53.03
2019-03-31T08:15:29.957Z,50.57
2019-03-31T08:18:00.447Z,48.10
2019-03-31T08:20:30.772Z,49.77
2019-03-31T08:23:00.980Z,44.07
2019-03-31T08:25:31.457Z,44.97
2019-03-31T08:28:01.265Z,46.83
2019-03-31T08:30:31.681Z,46.40
2019-03-31T08:33:02.152Z,38.80
2019-03-31T08:35:46.291Z,38.63
2019-03-31T08:38:04.185Z,39.47
2019-03-31T08:40:34.094Z,35.97
2019-03-31T08:43:04.442Z,35.07
2019-03-31T08:45:34.254Z,34.77
2019-03-31T08:48:04.354Z,32.63
2019-03-31T08:50:34.960Z,35.67
2019-03-31T08:53:06.451Z,31.87
2019-03-31T08:55:37.678Z,31.27
2019-03-31T08:58:07.812Z,28.10
2019-03-31T09:00:56.883Z,31.53
2019-03-31T09:03:26.751Z,31.90
2019-03-31T09:06:02.230Z,31.07
2019-03-31T09:08:29.233Z,32.03
2019-03-31T09:10:59.178Z,29.10
2019-03-31T09:13:29.909Z,29.07
2019-03-31T09:16:01.807Z,30.27
2019-03-31T09:18:32.053Z,30.30
2019-03-31T09:21:02.275Z,26.67
2019-03-31T09:23:32.443Z,29.13
2019-03-31T09:26:02.713Z,27.23
2019-03-31T09:28:33.303Z,22.77
2019-03-31T09:31:03.439Z,24.70
2019-03-31T09:33:33.695Z,25.43
2019-03-31T09:36:15.412Z,26.10
2019-03-31T09:38:35.403Z,24.37
2019-03-31T09:41:05.315Z,27.47
2019-03-31T09:43:35.141Z,30.67
2019-03-31T09:46:05.021Z,24.73
2019-03-31T09:48:35.195Z,29.33
2019-03-31T09:51:05.886Z,31.40
2019-03-31T09:53:37.398Z,23.40
2019-03-31T09:56:09.114Z,27.80
2019-03-31T09:58:40.023Z,24.37
2019-03-31T10:01:09.940Z,25.60
2019-03-31T10:03:40.082Z,21.77
2019-03-31T10:06:11.322Z,26.70
2019-03-31T10:08:42.900Z,28.63
2019-03-31T10:11:13.070Z,29.77
2019-03-31T10:13:43.320Z,27.10
2019-03-31T10:16:13.492Z,27.90
2019-03-31T10:18:43.654Z,21.83
2019-03-31T10:21:13.380Z,26.97
2019-03-31T10:23:43.114Z,23.47
2019-03-31T10:26:15.942Z,25.13
2019-03-31T10:28:45.072Z,24.67
2019-03-31T10:31:14.886Z,24.93
2019-03-31T10:33:44.664Z,21.53
2019-03-31T10:36:14.358Z,29.27
2019-03-31T10:38:44.386Z,23.73
2019-03-31T10:41:14.200Z,28.13
2019-03-31T10:43:44.314Z,21.73
2019-03-31T10:46:14.188Z,24.40
2019-03-31T10:48:43.994Z,26.03
2019-03-31T10:51:14.204Z,24.93
2019-03-31T10:53:43.994Z,23.90
2019-03-31T10:56:13.747Z,22.87
2019-03-31T10:58:43.971Z,19.83
2019-03-31T11:01:13.680Z,19.60
2019-03-31T11:03:43.564Z,20.17
2019-03-31T11:06:13.593Z,22.43
2019-03-31T11:08:43.370Z,19.93
2019-03-31T11:11:13.566Z,22.20
2019-03-31T11:13:43.371Z,20.50
2019-03-31T11:16:13.265Z,20.73
2019-03-31T11:18:43.143Z,18.37
2019-03-31T11:21:20.814Z,17.87
2019-03-31T11:23:50.854Z,21.40
2019-03-31T11:26:20.707Z,20.37
2019-03-31T11:28:50.817Z,19.80
2019-03-31T11:31:20.638Z,25.27
2019-03-31T11:33:50.589Z,22.80
2019-03-31T11:36:20.392Z,22.10
2019-03-31T11:38:50.484Z,22.57
2019-03-31T11:41:20.657Z,22.77
2019-03-31T11:43:50.716Z,22.87
2019-03-31T11:46:20.865Z,17.40
2019-03-31T11:48:51.017Z,24.63
2019-03-31T11:51:20.763Z,22.33
2019-03-31T11:53:50.612Z,21.50
2019-03-31T11:56:20.749Z,20.13
2019-03-31T11:58:50.865Z,22.10
2019-03-31T12:01:20.695Z,24.63
2019-03-31T12:03:50.581Z,19.83
2019-03-31T12:06:20.719Z,20.80
2019-03-31T12:08:50.912Z,23.00
2019-03-31T12:11:20.835Z,19.53
2019-03-31T12:13:50.601Z,26.00
2019-03-31T12:16:20.356Z,27.90
2019-03-31T12:18:50.363Z,19.17
2019-03-31T12:21:20.178Z,20.10
2019-03-31T12:23:50.366Z,20.67
2019-03-31T12:26:21.363Z,20.90
2019-03-31T12:28:51.420Z,20.77
2019-03-31T12:31:21.555Z,20.80
2019-03-31T12:33:51.781Z,20.80
2019-03-31T12:36:21.577Z,20.87
2019-03-31T12:38:53.924Z,22.80
2019-03-31T12:41:22.841Z,19.60
2019-03-31T12:43:52.946Z,21.37
2019-03-31T12:46:22.753Z,18.33
2019-03-31T12:48:52.544Z,18.73
2019-03-31T12:51:22.731Z,20.90
2019-03-31T12:53:52.513Z,17.97
2019-03-31T12:56:22.374Z,19.53
2019-03-31T12:58:52.167Z,22.30
2019-03-31T13:01:21.966Z,21.57
2019-03-31T13:03:51.826Z,17.20
2019-03-31T13:06:21.554Z,17.70
2019-03-31T13:08:51.361Z,19.93
2019-03-31T13:11:21.880Z,22.40
2019-03-31T13:13:51.628Z,17.37
2019-03-31T13:16:21.774Z,21.57
2019-03-31T13:18:51.590Z,18.00
2019-03-31T13:21:21.386Z,17.97
2019-03-31T13:23:51.196Z,17.37
2019-03-31T13:26:21.339Z,18.50
2019-03-31T13:28:51.133Z,17.63
2019-03-31T13:31:20.958Z,16.10
2019-03-31T13:33:51.071Z,16.63
2019-03-31T13:36:20.972Z,20.10
2019-03-31T13:38:50.864Z,20.47
2019-03-31T13:41:21.020Z,18.10
2019-03-31T13:43:50.760Z,17.53
2019-03-31T13:46:20.548Z,20.10
2019-03-31T13:48:50.269Z,19.00
2019-03-31T13:51:20.434Z,15.03
2019-03-31T13:53:50.152Z,21.67
2019-03-31T13:56:20.265Z,16.67
2019-03-31T13:58:52.272Z,23.07
2019-03-31T14:01:21.677Z,17.43
2019-03-31T14:03:51.916Z,21.57
2019-03-31T14:06:21.964Z,23.13
2019-03-31T14:08:51.770Z,16.77
2019-03-31T14:11:21.855Z,16.23
2019-03-31T14:13:51.771Z,18.83
2019-03-31T14:16:21.855Z,19.50
2019-03-31T14:18:51.984Z,20.17
2019-03-31T14:21:21.677Z,16.83
2019-03-31T14:23:51.460Z,21.00
2019-03-31T14:26:21.182Z,16.17
2019-03-31T14:28:50.974Z,20.27
2019-03-31T14:31:20.783Z,17.47
2019-03-31T14:33:50.507Z,19.23
2019-03-31T14:36:20.265Z,20.37
2019-03-31T14:38:50.061Z,21.73
2019-03-31T14:41:19.775Z,23.13
2019-03-31T14:43:49.513Z,16.60
2019-03-31T14:46:19.858Z,15.63
2019-03-31T14:48:49.746Z,14.87
2019-03-31T14:51:19.551Z,15.97
2019-03-31T14:53:49.605Z,17.83
2019-03-31T14:56:19.394Z,15.97
2019-03-31T14:58:49.179Z,18.90
2019-03-31T15:01:21.288Z,13.13
2019-03-31T15:03:50.872Z,15.03
2019-03-31T15:06:20.672Z,14.90
2019-03-31T15:08:54.516Z,14.93
2019-03-31T15:11:22.237Z,13.63
2019-03-31T15:13:55.559Z,15.30
2019-03-31T15:16:25.355Z,18.50
2019-03-31T15:18:55.149Z,13.40
2019-03-31T15:21:25.277Z,18.43
2019-03-31T15:23:55.464Z,15.47
2019-03-31T15:26:25.613Z,13.37
2019-03-31T15:28:55.457Z,11.73
2019-03-31T15:31:25.272Z,15.50
2019-03-31T15:33:55.656Z,16.20
2019-03-31T15:36:25.450Z,16.37
2019-03-31T15:39:08.161Z,14.17
2019-03-31T15:41:26.909Z,15.50
2019-03-31T15:43:57.288Z,11.57
2019-03-31T15:46:27.020Z,15.27
2019-03-31T15:48:57.103Z,10.07
2019-03-31T15:51:27.250Z,13.17
2019-03-31T15:53:57.434Z,14.23
2019-03-31T15:56:27.616Z,11.80
2019-03-31T15:58:57.699Z,12.77
2019-03-31T16:01:27.796Z,13.77
2019-03-31T16:03:57.599Z,12.53
2019-03-31T16:06:28.091Z,11.33
2019-03-31T16:08:57.356Z,11.63
2019-03-31T16:11:26.530Z,14.97
2019-03-31T16:13:55.712Z,12.53
2019-03-31T16:16:24.974Z,13.50
2019-03-31T16:18:54.288Z,13.33
2019-03-31T16:21:24.210Z,11.40
2019-03-31T16:23:53.448Z,12.17
2019-03-31T16:26:22.930Z,9.43
2019-03-31T16:28:52.381Z,11.20
2019-03-31T16:31:22.788Z,15.50
2019-03-31T16:33:52.710Z,12.80
2019-03-31T16:36:21.978Z,10.13
2019-03-31T16:38:51.198Z,8.97
2019-03-31T16:41:20.749Z,9.50
2019-03-31T16:43:50.224Z,12.63
2019-03-31T16:46:19.508Z,11.83
2019-03-31T16:48:48.660Z,9.37
2019-03-31T16:51:17.992Z,12.40
2019-03-31T16:53:47.473Z,12.63
2019-03-31T16:56:17.028Z,14.07
2019-03-31T16:58:46.273Z,11.63
2019-03-31T17:01:15.750Z,11.47
2019-03-31T17:03:45.835Z,12.50
2019-03-31T17:06:15.089Z,13.70
2019-03-31T17:08:44.695Z,10.37
2019-03-31T17:11:13.931Z,8.27
2019-03-31T17:13:43.098Z,12.03
2019-03-31T17:16:15.362Z,9.13
2019-03-31T17:18:43.624Z,11.80
2019-03-31T17:21:12.954Z,10.90
2019-03-31T17:23:42.524Z,10.43
2019-03-31T17:26:12.049Z,10.20
2019-03-31T17:28:41.668Z,7.97
2019-03-31T17:31:11.116Z,10.97
2019-03-31T17:33:40.336Z,8.57
2019-03-31T17:36:09.930Z,12.93
2019-03-31T17:38:39.191Z,12.57
2019-03-31T17:41:08.366Z,15.37
2019-03-31T17:43:38.141Z,12.03
2019-03-31T17:46:07.342Z,13.63
2019-03-31T17:48:36.569Z,14.17
2019-03-31T17:51:05.730Z,14.07
2019-03-31T17:53:35.008Z,10.80
2019-03-31T17:56:04.194Z,14.17
2019-03-31T17:58:33.350Z,20.77
2019-03-31T18:01:03.446Z,21.03
2019-03-31T18:03:32.969Z,11.07
2019-03-31T18:06:02.186Z,17.93
2019-03-31T18:08:31.374Z,16.07
2019-03-31T18:11:00.930Z,15.07
2019-03-31T18:13:30.653Z,21.37
2019-03-31T18:15:59.822Z,21.80
2019-03-31T18:18:29.048Z,15.37
2019-03-31T18:20:58.326Z,14.93
2019-03-31T18:23:27.493Z,15.30
2019-03-31T18:25:56.763Z,10.10
2019-03-31T18:28:25.988Z,11.67
2019-03-31T18:30:55.226Z,13.57
2019-03-31T18:33:24.467Z,15.23
2019-03-31T18:35:53.652Z,12.93
2019-03-31T18:38:22.847Z,16.77
2019-03-31T18:40:52.082Z,19.07
2019-03-31T18:43:21.521Z,15.63
2019-03-31T18:45:50.848Z,19.00
2019-03-31T18:48:20.436Z,16.97
2019-03-31T18:50:49.597Z,14.93
2019-03-31T18:53:34.019Z,13.63
2019-03-31T18:56:22.533Z,20.67
2019-03-31T18:59:09.780Z,16.40
2019-03-31T19:01:49.806Z,17.47
2019-03-31T19:04:42.665Z,20.83
2019-03-31T19:07:34.390Z,10.47
2019-03-31T19:10:24.903Z,15.13
2019-03-31T19:13:10.015Z,19.07
2019-03-31T19:15:56.958Z,14.57
2019-03-31T19:18:51.962Z,15.67
2019-03-31T19:21:29.256Z,17.27
2019-03-31T19:24:05.953Z,14.80
2019-03-31T19:27:02.670Z,13.20
2019-03-31T19:30:03.200Z,16.17
2019-03-31T19:32:41.509Z,11.33
2019-03-31T19:35:33.147Z,18.10
2019-03-31T19:38:27.006Z,19.17
2019-03-31T19:41:13.890Z,16.87
2019-03-31T19:43:56.934Z,17.07
2019-03-31T19:46:47.168Z,16.80
2019-03-31T19:49:41.228Z,18.33
2019-03-31T19:52:35.880Z,16.17
2019-03-31T19:55:30.264Z,17.67
2019-03-31T19:58:12.196Z,15.30
2019-03-31T20:00:54.802Z,15.57
2019-03-31T20:03:55.438Z,20.00
2019-03-31T20:06:33.134Z,21.43
2019-03-31T20:09:24.432Z,16.97
2019-03-31T20:12:18.449Z,17.93
2019-03-31T20:15:12.458Z,18.03
2019-03-31T20:18:00.808Z,12.33
2019-03-31T20:20:52.028Z,16.90
2019-03-31T20:23:40.258Z,14.23
2019-03-31T20:26:28.474Z,15.80
2019-03-31T20:29:19.952Z,15.63
2019-03-31T20:32:11.190Z,16.73
2019-03-31T20:34:49.674Z,13.10
2019-03-31T20:37:36.729Z,10.93
2019-03-31T20:40:25.438Z,19.77
2019-03-31T20:43:12.533Z,13.73
2019-03-31T20:45:41.696Z,23.83
2019-03-31T20:48:12.374Z,11.57
2019-03-31T20:50:41.666Z,16.90
2019-03-31T20:53:11.098Z,14.57
2019-03-31T20:55:42.955Z,13.40
2019-03-31T20:58:12.369Z,13.47
2019-03-31T21:00:41.564Z,12.67
2019-03-31T21:03:10.796Z,16.33
2019-03-31T21:05:40.055Z,16.03
2019-03-31T21:08:09.325Z,13.10
2019-03-31T21:10:38.524Z,18.30
2019-03-31T21:13:07.850Z,17.47
2019-03-31T21:15:37.166Z,14.13
2019-03-31T21:18:06.709Z,13.63
2019-03-31T21:20:36.329Z,17.00
2019-03-31T21:23:05.561Z,12.27
2019-03-31T21:25:35.250Z,15.13
2019-03-31T21:28:04.427Z,23.40
2019-03-31T21:30:34.046Z,16.03
2019-03-31T21:33:03.224Z,15.77
2019-03-31T21:35:32.732Z,17.47
2019-03-31T21:38:02.006Z,15.33
2019-03-31T21:40:31.181Z,16.80
2019-03-31T21:43:00.432Z,16.97
2019-03-31T21:45:29.616Z,21.00
2019-03-31T21:47:58.810Z,17.27
2019-03-31T21:50:27.987Z,18.37
2019-03-31T21:52:57.168Z,19.53
2019-03-31T21:55:26.625Z,16.50
2019-03-31T21:57:55.971Z,20.53
2019-03-31T22:00:38.588Z,15.00
2019-03-31T22:03:07.852Z,17.10
2019-03-31T22:05:37.114Z,17.77
2019-03-31T22:08:06.362Z,16.93
2019-03-31T22:10:35.506Z,17.80
2019-03-31T22:13:04.669Z,17.37
2019-03-31T22:15:34.119Z,15.27
2019-03-31T22:18:03.633Z,15.27
2019-03-31T22:20:32.805Z,15.53
2019-03-31T22:23:02.446Z,17.93
2019-03-31T22:25:31.740Z,13.90
2019-03-31T22:28:01.358Z,14.77
2019-03-31T22:30:30.622Z,12.13
2019-03-31T22:32:59.811Z,14.77
2019-03-31T22:35:28.960Z,14.80
2019-03-31T22:37:58.199Z,12.93
2019-03-31T22:40:27.796Z,18.10
2019-03-31T22:42:57.156Z,15.47
2019-03-31T22:45:26.631Z,20.00
2019-03-31T22:47:55.857Z,20.10
2019-03-31T22:50:25.024Z,16.40
2019-03-31T22:52:54.518Z,14.37
2019-03-31T22:55:24.116Z,10.97
2019-03-31T22:57:53.751Z,16.43
2019-03-31T23:00:27.074Z,10.90
2019-03-31T23:02:56.229Z,12.13
2019-03-31T23:05:25.780Z,18.30
2019-03-31T23:07:55.104Z,15.00
2019-03-31T23:10:24.316Z,14.10
2019-03-31T23:12:54.252Z,16.03
2019-03-31T23:15:23.730Z,12.00
2019-03-31T23:17:53.242Z,13.87
2019-03-31T23:20:22.668Z,13.73
2019-03-31T23:22:51.830Z,15.13
2019-03-31T23:25:21.150Z,16.00
2019-03-31T23:27:50.322Z,18.90
2019-03-31T23:30:19.557Z,16.13
2019-03-31T23:32:48.782Z,14.97
2019-03-31T23:35:17.957Z,16.30
2019-03-31T23:37:47.547Z,16.93
2019-03-31T23:40:16.714Z,12.53
2019-03-31T23:42:46.055Z,14.20
2019-03-31T23:45:15.356Z,11.83
2019-03-31T23:47:44.842Z,12.40
2019-03-31T23:50:13.987Z,11.90
2019-03-31T23:52:43.163Z,13.77
2019-03-31T23:55:12.419Z,16.10
2019-03-31T23:57:44.629Z,14.43
